»·PEaware :: N189DR KVGT-KSNA

N189DR :: KVGT-KSNA

FLIGHT INFORMATION

Flight Status: Arrived
Operator: Privately registered:
United States
More flights under this callsign
Pilot: Justin R. (12299)
Aircraft: BEECH AIRCRAFT BONANZA
(BE36)
More flights by this aircraft type
Origin: KVGT North Las Vegas
United States
Destination: KSNA John Wayne-Orange Co
United States
More flights between these airports :: More routes between these airports
Route: +RTTRN3 LAS OASYS V394 POM V363 WOKRO
File this flight plan on PilotEdge
Remarks:
Altitude:
(Current/Filed)
15,000ft
Speed:
(Current/Filed)
180kts
Departed: 10-Aug-17 07:55 PM
Arrived: 10-Aug-17 09:19 PM
Distance/Time
Traveled:
201nm/1:24
Distance/Time
To Go:
Arrived

Flight Plot

Page will automatically refresh every two minutes.

Flight plan parsing failed; only flown route is shown


Map Options




Map Legend


Flown Route
Filed Route
Departure Airport
Arrival Airport
Navaid (VOR, NDB)
Fix

Horizontal Profiles

Position Reports

Time Latitude Longitude Heading Altitude Ground
Speed
10-Aug-17 19:35 36.210518 -115.199917 29 2209ft 0kts
10-Aug-17 19:36 36.210518 -115.199917 29 2209ft 0kts
10-Aug-17 19:37 36.210518 -115.199917 29 2209ft 0kts
10-Aug-17 19:38 36.210518 -115.199917 29 2209ft 0kts
10-Aug-17 19:39 36.210518 -115.199917 29 2209ft 0kts
10-Aug-17 19:40 36.210518 -115.199917 29 2209ft 0kts
10-Aug-17 19:41 36.210518 -115.199917 29 2209ft 0kts
10-Aug-17 19:42 36.210518 -115.199917 29 2209ft 0kts
10-Aug-17 19:43 36.210518 -115.199917 29 2209ft 0kts
10-Aug-17 19:44 36.210518 -115.199917 29 2209ft 0kts
10-Aug-17 19:45 36.210518 -115.199917 29 2209ft 0kts
10-Aug-17 19:46 36.210518 -115.199917 29 2209ft 0kts
10-Aug-17 19:47 36.210518 -115.199917 29 2209ft 0kts
10-Aug-17 19:48 36.210518 -115.199917 29 2209ft 0kts
10-Aug-17 19:49 36.210518 -115.199917 29 2209ft 0kts
10-Aug-17 19:50 36.210518 -115.199917 29 2209ft 0kts
10-Aug-17 19:51 36.211407 -115.200453 317 2209ft 9kts
10-Aug-17 19:52 36.211967 -115.201169 314 2209ft 8kts
10-Aug-17 19:53 36.213768 -115.203565 40 2209ft 0kts
10-Aug-17 19:54 36.214063 -115.203472 48 2209ft 0kts
10-Aug-17 19:55 36.214063 -115.203472 48 2209ft 0kts
10-Aug-17 19:56 36.214063 -115.203472 48 2209ft 0kts
10-Aug-17 19:57 36.214087 -115.203425 64 2209ft 1kts
10-Aug-17 19:58 36.207468 -115.193575 136 2316ft 100kts
10-Aug-17 19:59 36.181232 -115.194193 255 3113ft 140kts
10-Aug-17 20:00 36.175996 -115.238567 274 4527ft 127kts
10-Aug-17 20:01 36.202183 -115.262841 341 5863ft 120kts
10-Aug-17 20:02 36.234633 -115.281310 331 6762ft 140kts
10-Aug-17 20:03 36.256643 -115.262779 123 7549ft 145kts
10-Aug-17 20:04 36.221537 -115.241012 156 8309ft 143kts
10-Aug-17 20:05 36.186480 -115.221351 155 9022ft 143kts
10-Aug-17 20:06 36.151182 -115.201107 155 9793ft 137kts
10-Aug-17 20:07 36.118370 -115.182188 154 10620ft 130kts
10-Aug-17 20:08 36.086378 -115.164126 168 11352ft 130kts
10-Aug-17 20:09 36.058702 -115.188145 224 12039ft 129kts
10-Aug-17 20:10 36.033833 -115.219572 225 12731ft 129kts
10-Aug-17 20:11 36.009098 -115.251375 226 13404ft 130kts
10-Aug-17 20:12 35.984752 -115.282792 226 14047ft 130kts
10-Aug-17 20:13 35.959918 -115.314852 226 14682ft 130kts
10-Aug-17 20:14 35.934589 -115.347530 226 15108ft 144kts
10-Aug-17 20:15 35.904449 -115.386386 226 15086ft 165kts
10-Aug-17 20:16 35.873041 -115.426864 226 15076ft 168kts
10-Aug-17 20:17 35.841048 -115.468019 226 15074ft 169kts
10-Aug-17 20:18 35.808516 -115.509802 226 15074ft 170kts
10-Aug-17 20:19 35.776195 -115.551259 226 15073ft 169kts
10-Aug-17 20:20 35.744003 -115.592493 226 15074ft 169kts
10-Aug-17 20:21 35.711511 -115.634082 226 15074ft 169kts
10-Aug-17 20:22 35.679282 -115.675271 225 15076ft 172kts
10-Aug-17 20:23 35.645878 -115.717889 225 15058ft 175kts
10-Aug-17 20:24 35.612282 -115.760747 225 15055ft 175kts
10-Aug-17 20:25 35.578681 -115.803554 225 15055ft 174kts
10-Aug-17 20:26 35.545285 -115.846090 226 15055ft 174kts
10-Aug-17 20:27 35.513116 -115.890123 229 15055ft 174kts
10-Aug-17 20:28 35.482891 -115.936402 232 15055ft 174kts
10-Aug-17 20:29 35.454884 -115.984465 236 15055ft 174kts
10-Aug-17 20:30 35.429180 -116.033970 239 15055ft 174kts
10-Aug-17 20:31 35.405526 -116.085406 242 15055ft 174kts
10-Aug-17 20:32 35.384147 -116.138371 245 15055ft 174kts
10-Aug-17 20:33 35.354643 -116.182977 217 15056ft 173kts
10-Aug-17 20:34 35.318426 -116.222753 226 14862ft 183kts
10-Aug-17 20:35 35.281457 -116.270276 226 13976ft 199kts
10-Aug-17 20:36 35.243591 -116.319094 226 13064ft 199kts
10-Aug-17 20:37 35.206825 -116.366406 226 12196ft 197kts
10-Aug-17 20:38 35.171359 -116.412011 226 12049ft 177kts
10-Aug-17 20:39 35.137815 -116.455015 226 12054ft 175kts
10-Aug-17 20:40 35.104623 -116.497538 226 12055ft 174kts
10-Aug-17 20:41 35.071338 -116.540138 226 12055ft 174kts
10-Aug-17 20:42 35.038042 -116.582682 226 12055ft 174kts
10-Aug-17 20:43 35.005088 -116.624779 226 12055ft 174kts
10-Aug-17 20:44 34.972882 -116.665857 226 12055ft 174kts
10-Aug-17 20:45 34.939726 -116.708090 226 12055ft 174kts
10-Aug-17 20:46 34.906758 -116.750030 226 12055ft 174kts
10-Aug-17 20:47 34.874909 -116.790499 226 12055ft 174kts
10-Aug-17 20:48 34.842477 -116.831661 226 12055ft 174kts
10-Aug-17 20:49 34.809735 -116.873172 226 12056ft 174kts
10-Aug-17 20:50 34.777050 -116.914586 226 12055ft 174kts
10-Aug-17 20:51 34.744742 -116.955447 226 12055ft 174kts
10-Aug-17 20:52 34.711549 -116.997392 226 11946ft 180kts
10-Aug-17 20:53 34.680482 -117.036575 226 11926ft 176kts
10-Aug-17 20:54 34.648121 -117.077307 226 11927ft 175kts
10-Aug-17 20:55 34.615744 -117.118053 226 11927ft 174kts
10-Aug-17 20:56 34.583247 -117.158894 226 11927ft 174kts
10-Aug-17 20:57 34.550694 -117.199759 226 11927ft 174kts
10-Aug-17 20:58 34.518705 -117.239852 226 11927ft 173kts
10-Aug-17 20:59 34.487063 -117.279475 226 11927ft 173kts
10-Aug-17 21:00 34.455151 -117.319387 226 11927ft 173kts
10-Aug-17 21:01 34.423610 -117.358798 226 11927ft 173kts
10-Aug-17 21:02 34.392578 -117.397528 226 11927ft 173kts
10-Aug-17 21:03 34.360807 -117.437137 226 11927ft 173kts
10-Aug-17 21:04 34.329341 -117.476319 226 11927ft 173kts
10-Aug-17 21:05 34.297919 -117.515421 226 12008ft 170kts
10-Aug-17 21:06 34.266647 -117.554257 226 12011ft 173kts
10-Aug-17 21:07 34.234457 -117.594201 226 12010ft 173kts
10-Aug-17 21:08 34.203149 -117.633010 226 12010ft 174kts
10-Aug-17 21:09 34.172207 -117.671273 225 11903ft 171kts
10-Aug-17 21:10 34.139858 -117.711296 225 11091ft 184kts
10-Aug-17 21:11 34.105977 -117.753171 225 10292ft 186kts
10-Aug-17 21:12 34.068272 -117.785399 180 9486ft 186kts
10-Aug-17 21:13 34.019638 -117.784204 177 8639ft 189kts
10-Aug-17 21:14 33.968947 -117.781830 177 7591ft 194kts
10-Aug-17 21:15 33.917215 -117.779272 177 6385ft 201kts
10-Aug-17 21:16 33.868926 -117.776836 177 5057ft 167kts
10-Aug-17 21:17 33.828204 -117.784814 194 3783ft 154kts
10-Aug-17 21:18 33.787387 -117.798091 198 2769ft 163kts
10-Aug-17 21:19 33.750345 -117.820533 211 1831ft 164kts
10-Aug-17 21:20 33.714905 -117.844290 209 853ft 138kts
10-Aug-17 21:21 33.689363 -117.860151 208 363ft 95kts
10-Aug-17 21:22 33.674113 -117.870225 262 60ft 13kts
10-Aug-17 21:23 33.673663 -117.872334 218 60ft 8kts

Navigation Log

Ident Type
Flight plan parsing failed, navigation log unavailable